Carolina Shores, North Carolina
Current Conditions -  °F | °C
As of 1:53 PM on Thursday 23 Oct 2014 (Local Time) from KCRE Reporting Station
Clear Clear  
Wind Chill: 68°   Ceiling: Unl
Heat Index: 68°   Visibility: 10mi
Dew Point: 43°   Wind: 9mph
Humidity: 40%   Direction: 280°W
Pressure: 29.98"   Gusts: NA
Location:  33.9181°N, 78.5805°W
Report Text: KCRE 231753Z 28008KT 250V320 10SM CLR 20/06 A2998 RMK AO1 SLP153 T02000061 10200 20083 58023
Loading
Personal Weather Stations






























Interactive Weather Map
Tropical Storm Tracking
New forecast layout! Learn more

10-Day Weather Forecast

Advertisements
Track Severe Weather on mobile